Time;durP1;ratioP1;P1;durP2;ratioP2;P2;SDS_P1;SDS_P2;PMS_P1;PMS_P2;Temp;Humidity;BMP_temperature;BMP_pressure;BME280_temperature;BME280_humidity;BME280_pressure;Samples;Min_cycle;Max_cycle;Signal;HPM_P1;HPM_P2
2023/08/12 00:01:35;;;;;;;5.27;4.70;;;;;;;20.11;100.00;98367.16;5038695;28;20202;-78
2023/08/12 00:04:01;;;;;;;5.13;4.50;;;;;;;20.06;100.00;98361.72;5038308;28;20202;-78
2023/08/12 00:06:28;;;;;;;5.83;5.17;;;;;;;20.01;100.00;98358.22;5038473;28;20206;-78
2023/08/12 00:08:54;;;;;;;5.37;4.90;;;;;;;19.94;100.00;98363.09;5038131;28;20226;-78
2023/08/12 00:11:20;;;;;;;5.87;4.90;;;;;;;19.93;100.00;98353.38;5038309;28;20248;-78
2023/08/12 00:13:47;;;;;;;5.63;4.60;;;;;;;19.88;100.00;98354.19;5039832;28;20315;-78
2023/08/12 00:16:13;;;;;;;5.87;5.27;;;;;;;19.91;100.00;98355.53;5055280;28;20203;-78
2023/08/12 00:18:39;;;;;;;6.00;5.43;;;;;;;19.92;100.00;98355.28;5058182;28;20229;-78
2023/08/12 00:21:09;;;;;;;6.57;5.00;;;;;;;19.92;100.00;98344.47;5058316;28;20201;-78
2023/08/12 00:23:39;;;;;;;5.90;5.20;;;;;;;19.85;100.00;98346.63;5058391;28;20665;-78
2023/08/12 00:26:05;;;;;;;6.93;5.33;;;;;;;19.86;100.00;98340.16;5058500;28;20209;-78
2023/08/12 00:28:32;;;;;;;6.50;5.17;;;;;;;19.88;100.00;98337.19;5058537;28;20580;-78
2023/08/12 00:30:58;;;;;;;7.60;4.97;;;;;;;19.89;100.00;98341.53;5057800;28;20217;-78
2023/08/12 00:33:24;;;;;;;6.00;5.40;;;;;;;19.90;100.00;98335.03;5057409;28;20201;-78
2023/08/12 00:35:51;;;;;;;7.47;5.43;;;;;;;19.90;100.00;98340.44;5047587;28;20202;-78
2023/08/12 00:38:17;;;;;;;6.93;5.23;;;;;;;19.94;100.00;98338.81;5037249;28;20591;-78
2023/08/12 00:40:44;;;;;;;5.57;5.07;;;;;;;19.87;100.00;98332.88;5038222;28;20201;-78
2023/08/12 00:43:11;;;;;;;5.90;5.13;;;;;;;19.88;100.00;98329.91;5038076;28;20202;-78
2023/08/12 00:45:38;;;;;;;6.10;5.40;;;;;;;19.80;100.00;98318.84;5052126;28;20204;-78
2023/08/12 00:48:05;;;;;;;5.93;5.10;;;;;;;19.78;100.00;98324.53;5043842;28;20206;-78
2023/08/12 00:50:32;;;;;;;6.57;5.37;;;;;;;19.78;100.00;98322.63;5037441;28;20229;-78
2023/08/12 00:53:00;;;;;;;5.67;5.17;;;;;;;19.69;100.00;98324.25;5037892;28;20220;-78
2023/08/12 00:55:26;;;;;;;9.00;5.43;;;;;;;19.64;100.00;98313.44;5020245;28;20661;-78
2023/08/12 00:57:53;;;;;;;5.83;5.20;;;;;;;19.65;100.00;98308.88;5037730;28;20214;-78
2023/08/12 01:00:20;;;;;;;5.33;4.77;;;;;;;19.63;100.00;98319.16;5037227;28;20222;-78
2023/08/12 01:02:49;;;;;;;5.90;5.40;;;;;;;19.62;100.00;98316.72;5045071;28;20205;-78
2023/08/12 01:05:16;;;;;;;7.37;5.43;;;;;;;19.60;100.00;98312.38;5058184;28;20205;-78
2023/08/12 01:07:45;;;;;;;5.93;5.43;;;;;;;19.59;100.00;98305.38;5057891;28;20205;-78
2023/08/12 01:10:14;;;;;;;5.90;5.20;;;;;;;19.59;100.00;98307.28;5056979;28;20236;-78
2023/08/12 01:13:22;;;;;;;6.47;5.77;;;;;;;19.59;100.00;98302.66;5052692;28;20545;-78
2023/08/12 01:15:53;;;;;;;6.50;5.87;;;;;;;19.58;100.00;98295.66;5027307;28;20259;-78
2023/08/12 01:18:21;;;;;;;6.70;5.50;;;;;;;19.60;100.00;98300.78;5056834;28;20190;-78
2023/08/12 01:20:48;;;;;;;7.33;6.30;;;;;;;19.59;100.00;98299.97;5057299;28;20243;-78
2023/08/12 01:23:15;;;;;;;7.90;5.93;;;;;;;19.54;100.00;98299.97;5057086;28;20208;-78
2023/08/12 01:25:43;;;;;;;6.80;6.13;;;;;;;19.52;100.00;98291.34;5055590;28;20201;-78
2023/08/12 01:28:09;;;;;;;7.67;5.97;;;;;;;19.48;100.00;98292.97;5057065;28;20209;-78
2023/08/12 01:30:44;;;;;;;8.30;6.03;;;;;;;19.49;100.00;98288.38;5055719;28;20241;-78
2023/08/12 01:33:19;;;;;;;8.27;6.07;;;;;;;19.41;100.00;98284.34;5056160;28;20251;-78
2023/08/12 01:35:54;;;;;;;6.83;5.40;;;;;;;19.41;100.00;98281.63;5038830;28;20189;-78
2023/08/12 01:38:24;;;;;;;7.07;6.37;;;;;;;19.36;100.00;98275.44;5056859;28;20189;-78
2023/08/12 01:40:53;;;;;;;7.07;5.90;;;;;;;19.36;100.00;98275.44;5038782;28;20281;-78
2023/08/12 01:43:19;;;;;;;7.43;6.10;;;;;;;19.34;100.00;98282.97;5056449;28;20234;-78
2023/08/12 01:45:46;;;;;;;6.27;5.67;;;;;;;19.30;100.00;98279.22;5056843;28;20293;-78
2023/08/12 01:48:12;;;;;;;6.53;5.93;;;;;;;19.31;100.00;98278.13;5056509;28;20193;-78
2023/08/12 01:50:38;;;;;;;7.20;5.97;;;;;;;19.34;100.00;98273.03;5056409;28;20217;-78
2023/08/12 01:53:05;;;;;;;5.97;5.37;;;;;;;19.32;100.00;98280.56;5042215;28;20198;-78
2023/08/12 01:55:31;;;;;;;6.40;5.70;;;;;;;19.33;100.00;98281.38;5036456;28;20202;-78
2023/08/12 01:57:57;;;;;;;6.63;5.40;;;;;;;19.32;100.00;98269.78;5036089;28;20214;-78
2023/08/12 02:00:24;;;;;;;8.17;5.10;;;;;;;19.27;100.00;98272.47;5036180;28;20232;-78
2023/08/12 02:02:50;;;;;;;5.93;5.43;;;;;;;19.21;100.00;98276.22;5036125;28;20339;-78
2023/08/12 02:05:17;;;;;;;6.17;5.57;;;;;;;19.19;100.00;98274.88;5036098;28;20206;-78
2023/08/12 02:07:43;;;;;;;6.00;4.90;;;;;;;19.22;100.00;98280.56;5036654;28;20208;-78
2023/08/12 02:10:10;;;;;;;5.87;5.27;;;;;;;19.21;100.00;98278.09;5036085;28;20308;-78
2023/08/12 02:12:36;;;;;;;5.90;5.30;;;;;;;19.24;100.00;98277.59;5036032;28;20303;-78
2023/08/12 02:15:02;;;;;;;6.37;5.00;;;;;;;19.28;100.00;98268.69;5036133;28;20592;-78
2023/08/12 02:17:29;;;;;;;7.23;5.40;;;;;;;19.30;100.00;98266.53;5036527;28;20237;-78
2023/08/12 02:19:55;;;;;;;8.13;6.03;;;;;;;19.37;100.00;98269.75;5035646;28;20728;-78
2023/08/12 02:22:22;;;;;;;7.23;5.40;;;;;;;19.41;100.00;98264.66;5047448;28;20193;-78
2023/08/12 02:24:49;;;;;;;7.27;5.57;;;;;;;19.49;100.00;98266.78;5057943;28;20211;-78
2023/08/12 02:27:15;;;;;;;6.13;5.53;;;;;;;19.54;100.00;98261.44;5059768;28;20216;-78
2023/08/12 02:29:41;;;;;;;8.67;5.50;;;;;;;19.58;100.00;98261.69;5059879;28;20288;-78
2023/08/12 02:32:08;;;;;;;6.00;5.50;;;;;;;19.58;100.00;98262.47;5059390;28;20256;-78
2023/08/12 02:34:34;;;;;;;6.27;5.17;;;;;;;19.59;100.00;98262.22;5059875;28;20205;-78
2023/08/12 02:37:00;;;;;;;6.40;5.70;;;;;;;19.60;100.00;98254.94;5059179;28;20202;-78
2023/08/12 02:39:27;;;;;;;6.03;4.93;;;;;;;19.58;100.00;98247.13;5059065;28;20255;-78
2023/08/12 02:41:53;;;;;;;5.87;5.30;;;;;;;19.57;100.00;98252.78;5059264;28;20691;-78
2023/08/12 02:44:20;;;;;;;5.77;5.27;;;;;;;19.58;100.00;98246.28;5058881;28;20665;-78
2023/08/12 02:46:46;;;;;;;6.10;5.50;;;;;;;19.59;100.00;98242.53;5059725;28;20211;-78
2023/08/12 02:49:12;;;;;;;6.77;5.27;;;;;;;19.60;100.00;98249.53;5059781;28;20225;-78
2023/08/12 02:51:39;;;;;;;5.90;5.40;;;;;;;19.58;100.00;98250.91;5059382;28;20320;-78
2023/08/12 02:54:05;;;;;;;5.93;5.33;;;;;;;19.57;100.00;98252.78;5059738;28;20207;-78
2023/08/12 02:56:32;;;;;;;5.60;5.10;;;;;;;19.57;100.00;98250.06;5059048;28;20205;-78
2023/08/12 02:58:58;;;;;;;6.27;5.57;;;;;;;19.56;100.00;98253.84;5058789;28;20225;-78
2023/08/12 03:01:25;;;;;;;7.27;5.03;;;;;;;19.54;100.00;98258.72;5058625;28;20212;-78
2023/08/12 03:03:51;;;;;;;5.90;4.97;;;;;;;19.50;100.00;98253.03;5058997;28;20201;-78
2023/08/12 03:06:18;;;;;;;5.53;5.00;;;;;;;19.50;100.00;98249.56;5058310;28;20197;-78
2023/08/12 03:08:44;;;;;;;6.00;5.40;;;;;;;19.54;100.00;98256.03;5058423;28;20256;-78
2023/08/12 03:11:11;;;;;;;5.50;5.00;;;;;;;19.56;100.00;98248.47;5058086;28;20231;-78
2023/08/12 03:13:37;;;;;;;5.40;4.90;;;;;;;19.54;100.00;98250.63;5058482;28;20209;-78
2023/08/12 03:16:03;;;;;;;6.60;6.00;;;;;;;19.52;100.00;98239.31;5058415;28;20202;-78
2023/08/12 03:18:30;;;;;;;6.60;4.93;;;;;;;19.55;100.00;98244.94;5058483;28;20225;-78
2023/08/12 03:20:56;;;;;;;5.47;4.97;;;;;;;19.55;100.00;98242.25;5058731;28;20201;-78
2023/08/12 03:23:23;;;;;;;5.67;5.17;;;;;;;19.57;100.00;98246.59;5058926;28;20231;-78
2023/08/12 03:25:49;;;;;;;5.80;5.23;;;;;;;19.58;100.00;98235.50;5058312;28;20669;-78
2023/08/12 03:28:16;;;;;;;5.67;4.80;;;;;;;19.59;100.00;98237.94;5043517;28;20653;-78
2023/08/12 03:30:43;;;;;;;5.73;5.13;;;;;;;19.62;100.00;98230.41;5038367;28;20205;-78
2023/08/12 03:33:09;;;;;;;5.43;4.90;;;;;;;19.61;100.00;98234.97;5038622;28;20212;-78
2023/08/12 03:35:36;;;;;;;7.10;4.97;;;;;;;19.62;100.00;98225.78;5038949;28;20213;-78
2023/08/12 03:38:02;;;;;;;6.47;4.80;;;;;;;19.63;100.00;98234.72;5037149;28;20212;-78
2023/08/12 03:40:28;;;;;;;6.27;4.70;;;;;;;19.63;100.00;98229.31;5038127;28;20230;-78
2023/08/12 03:42:55;;;;;;;7.53;5.27;;;;;;;19.63;100.00;98229.31;5039743;28;20202;-78
2023/08/12 03:45:21;;;;;;;6.30;5.03;;;;;;;19.66;100.00;98234.97;5058437;28;20213;-78
2023/08/12 03:47:47;;;;;;;5.17;4.57;;;;;;;19.67;100.00;98233.88;5057343;28;20219;-78
2023/08/12 03:50:14;;;;;;;7.17;4.87;;;;;;;19.60;100.00;98244.16;5056394;28;20217;-78
2023/08/12 03:52:40;;;;;;;7.43;5.10;;;;;;;19.58;100.00;98233.63;5056999;28;20229;-78
2023/08/12 03:55:07;;;;;;;5.00;4.60;;;;;;;19.58;100.00;98234.72;5057281;28;20212;-78
2023/08/12 03:57:33;;;;;;;6.40;5.10;;;;;;;19.55;100.00;98236.84;5056805;28;20215;-78
2023/08/12 04:00:00;;;;;;;5.73;5.13;;;;;;;19.58;100.00;98240.09;5056835;28;20225;-78
2023/08/12 04:02:26;;;;;;;5.10;4.60;;;;;;;19.58;100.00;98238.19;5056327;28;20221;-78
2023/08/12 04:04:53;;;;;;;4.87;4.47;;;;;;;19.57;100.00;98241.19;5056515;28;20197;-78
2023/08/12 04:07:19;;;;;;;5.47;4.67;;;;;;;19.53;100.00;98240.91;5056966;28;20216;-78
2023/08/12 04:09:45;;;;;;;6.97;4.93;;;;;;;19.56;100.00;98245.78;5056856;28;20229;-78
2023/08/12 04:12:12;;;;;;;5.83;4.83;;;;;;;19.58;100.00;98249.81;5056665;28;20232;-78
2023/08/12 04:14:40;;;;;;;5.40;4.90;;;;;;;19.60;100.00;98250.34;5056868;28;20206;-78
2023/08/12 04:17:07;;;;;;;6.33;5.00;;;;;;;19.59;100.00;98243.34;5057042;28;20208;-78
2023/08/12 04:19:33;;;;;;;5.47;4.87;;;;;;;19.68;100.00;98247.09;5056041;28;20315;-78
2023/08/12 04:21:59;;;;;;;6.13;4.93;;;;;;;19.71;100.00;98256.53;5056578;28;20209;-78
2023/08/12 04:24:26;;;;;;;5.80;4.70;;;;;;;19.71;100.00;98258.44;5057143;28;20292;-78
2023/08/12 04:26:52;;;;;;;5.93;4.97;;;;;;;19.72;100.00;98263.56;5055498;28;20197;-78
2023/08/12 04:29:18;;;;;;;6.50;4.93;;;;;;;19.75;100.00;98257.59;5056818;28;20221;-78
2023/08/12 04:31:45;;;;;;;4.97;4.47;;;;;;;19.73;100.00;98267.06;5055088;28;20659;-78
2023/08/12 04:34:11;;;;;;;5.50;5.00;;;;;;;19.75;100.00;98262.22;5053874;28;20545;-78
2023/08/12 04:36:37;;;;;;;6.07;4.77;;;;;;;19.72;100.00;98268.13;5053747;28;20691;-78
2023/08/12 04:39:04;;;;;;;5.23;4.77;;;;;;;19.73;100.00;98267.88;5054076;28;20716;-78
2023/08/12 04:41:30;;;;;;;5.00;4.53;;;;;;;19.67;100.00;98266.25;5052111;28;20225;-78
2023/08/12 04:43:57;;;;;;;5.97;5.13;;;;;;;19.66;100.00;98258.44;5054246;28;20201;-78
2023/08/12 04:46:23;;;;;;;6.03;4.80;;;;;;;19.74;100.00;98250.59;5054513;28;20205;-78
2023/08/12 04:48:49;;;;;;;5.47;4.73;;;;;;;19.67;100.00;98245.47;5053328;28;20226;-78
2023/08/12 04:51:16;;;;;;;6.73;5.00;;;;;;;19.67;100.00;98258.16;5054665;28;20225;-78
2023/08/12 04:53:42;;;;;;;5.37;4.97;;;;;;;19.67;100.00;98257.34;5055972;28;20205;-78
2023/08/12 04:56:09;;;;;;;5.67;4.87;;;;;;;19.64;100.00;98272.19;5056008;28;20205;-78
2023/08/12 04:58:35;;;;;;;5.10;4.50;;;;;;;19.63;100.00;98257.09;5056340;28;20316;-78
2023/08/12 05:01:02;;;;;;;5.93;4.77;;;;;;;19.63;100.00;98267.06;5055896;28;20213;-78
2023/08/12 05:03:29;;;;;;;5.77;5.23;;;;;;;19.63;100.00;98265.19;5055959;28;20214;-78
2023/08/12 05:05:55;;;;;;;5.73;5.23;;;;;;;19.64;100.00;98254.09;5055846;28;20201;-78
2023/08/12 05:08:22;;;;;;;4.80;4.43;;;;;;;19.63;100.00;98249.00;5055760;28;20227;-78
2023/08/12 05:10:49;;;;;;;4.90;4.50;;;;;;;19.67;100.00;98253.56;5055862;28;20669;-78
2023/08/12 05:13:16;;;;;;;5.03;4.53;;;;;;;19.72;100.00;98260.06;5054624;28;20232;-75
2023/08/12 05:15:46;;;;;;;5.60;5.10;;;;;;;19.72;100.00;98255.47;5054222;28;20217;-78
2023/08/12 05:18:13;;;;;;;5.10;4.60;;;;;;;19.77;100.00;98242.75;5055926;28;20587;-78
2023/08/12 05:20:41;;;;;;;5.90;5.40;;;;;;;19.75;100.00;98243.34;5055333;28;20205;-78
2023/08/12 05:23:08;;;;;;;6.07;5.23;;;;;;;19.77;100.00;98238.47;5056089;28;20201;-78
2023/08/12 05:25:34;;;;;;;5.70;5.10;;;;;;;19.77;100.00;98250.06;5055372;28;20545;-78
2023/08/12 05:28:00;;;;;;;5.20;4.80;;;;;;;19.73;100.00;98257.88;5055603;28;20212;-78
2023/08/12 05:30:27;;;;;;;6.50;5.33;;;;;;;19.70;100.00;98260.31;5055352;28;20229;-78
2023/08/12 05:32:53;;;;;;;6.33;5.17;;;;;;;19.75;100.00;98271.09;5055088;28;20221;-78
2023/08/12 05:35:19;;;;;;;5.77;5.27;;;;;;;19.76;100.00;98275.41;5055163;28;20210;-78
2023/08/12 05:37:46;;;;;;;5.67;5.17;;;;;;;19.80;100.00;98267.59;5055026;28;20215;-78
2023/08/12 05:40:12;;;;;;;6.57;5.40;;;;;;;19.81;100.00;98266.50;5054318;28;20252;-78
2023/08/12 05:42:38;;;;;;;5.60;5.10;;;;;;;19.83;100.00;98257.06;5055474;28;20251;-74
2023/08/12 05:45:05;;;;;;;6.03;5.43;;;;;;;19.84;100.00;98249.78;5053668;28;20205;-74
2023/08/12 05:47:32;;;;;;;5.97;5.47;;;;;;;19.73;100.00;98245.47;5054050;28;20215;-74
2023/08/12 05:49:58;;;;;;;7.80;5.30;;;;;;;19.75;100.00;98248.72;5053136;28;20708;-74
2023/08/12 05:52:25;;;;;;;5.90;5.50;;;;;;;19.67;100.00;98250.88;5053482;28;20235;-73
2023/08/12 05:54:51;;;;;;;8.27;5.93;;;;;;;19.69;100.00;98254.09;5053395;28;20211;-73
2023/08/12 05:57:17;;;;;;;6.07;5.57;;;;;;;19.72;100.00;98251.97;5053403;28;20283;-74
2023/08/12 05:59:44;;;;;;;6.93;5.63;;;;;;;19.68;100.00;98255.19;5054527;28;20225;-73
2023/08/12 06:02:10;;;;;;;7.27;5.97;;;;;;;19.76;100.00;98255.72;5057551;28;20205;-74
2023/08/12 06:04:37;;;;;;;6.63;5.97;;;;;;;19.80;100.00;98257.59;5057097;28;20785;-74
2023/08/12 06:07:03;;;;;;;6.67;5.93;;;;;;;19.86;100.00;98259.22;5057446;28;20201;-74
2023/08/12 06:09:29;;;;;;;6.43;5.83;;;;;;;19.81;100.00;98269.22;5057269;28;20225;-74
2023/08/12 06:11:56;;;;;;;6.90;6.30;;;;;;;19.77;100.00;98269.75;5057121;28;20225;-74
2023/08/12 06:14:22;;;;;;;7.30;6.07;;;;;;;19.94;100.00;98264.03;5057194;28;20212;-74
2023/08/12 06:16:48;;;;;;;8.17;5.73;;;;;;;19.94;100.00;98255.94;5057065;28;20209;-74
2023/08/12 06:19:15;;;;;;;6.83;6.10;;;;;;;19.99;100.00;98247.81;5057073;28;20225;-74
2023/08/12 06:21:41;;;;;;;7.73;6.20;;;;;;;20.01;100.00;98236.75;5057449;28;20564;-74
2023/08/12 06:24:07;;;;;;;6.50;5.90;;;;;;;20.02;100.00;98235.72;5056932;28;20235;-73
2023/08/12 06:26:34;;;;;;;6.10;5.60;;;;;;;20.10;100.00;98237.84;5057050;28;20205;-74
2023/08/12 06:29:00;;;;;;;8.00;5.87;;;;;;;20.16;100.00;98234.06;5056929;28;20226;-74
2023/08/12 06:31:26;;;;;;;6.53;5.93;;;;;;;20.21;100.00;98237.53;5056966;28;20209;-74
2023/08/12 06:33:53;;;;;;;7.10;6.50;;;;;;;20.24;100.00;98230.78;5056988;28;20205;-74
2023/08/12 06:36:19;;;;;;;6.93;5.70;;;;;;;20.32;100.00;98232.91;5056893;28;20205;-74
2023/08/12 06:38:46;;;;;;;6.20;5.47;;;;;;;20.39;100.00;98242.31;5056530;28;20237;-74
2023/08/12 06:41:12;;;;;;;6.23;5.63;;;;;;;20.42;100.00;98235.56;5056822;28;20200;-73
2023/08/12 06:43:38;;;;;;;5.90;5.40;;;;;;;20.45;100.00;98246.63;5056697;28;20212;-74
2023/08/12 06:46:05;;;;;;;6.43;5.67;;;;;;;20.52;100.00;98251.75;5056694;28;20227;-74
2023/08/12 06:48:31;;;;;;;6.40;5.80;;;;;;;20.57;100.00;98246.31;5056652;28;20221;-74
2023/08/12 06:50:57;;;;;;;6.53;5.80;;;;;;;20.63;100.00;98250.59;5056482;28;20292;-74
2023/08/12 06:53:27;;;;;;;6.37;5.73;;;;;;;20.81;100.00;98245.38;5056434;28;20311;-74
2023/08/12 06:55:53;;;;;;;7.10;5.40;;;;;;;20.98;100.00;98245.00;5056103;28;20698;-74
2023/08/12 06:58:19;;;;;;;7.50;5.63;;;;;;;21.14;100.00;98249.22;5056140;28;20673;-74
2023/08/12 07:00:46;;;;;;;7.30;5.38;;;;;;;21.24;100.00;98243.72;5054867;28;20661;-78
2023/08/12 07:03:12;;;;;;;6.00;5.47;;;;;;;21.36;100.00;98242.28;5056803;28;20201;-78
2023/08/12 07:05:38;;;;;;;5.90;5.30;;;;;;;21.47;100.00;98248.41;5058589;28;20205;-79
2023/08/12 07:08:05;;;;;;;6.88;5.82;;;;;;;21.56;100.00;98242.09;5057922;28;20212;-78
2023/08/12 07:10:31;;;;;;;6.25;5.30;;;;;;;21.54;100.00;98244.28;5056877;28;20201;-78
2023/08/12 07:12:58;;;;;;;10.48;5.55;;;;;;;21.60;100.00;98248.56;5056791;28;20232;-78
2023/08/12 07:15:24;;;;;;;6.68;6.07;;;;;;;21.65;100.00;98250.41;5058124;28;20209;-78
2023/08/12 07:17:50;;;;;;;5.82;5.30;;;;;;;21.72;100.00;98243.63;5057524;28;20212;-78
2023/08/12 07:20:17;;;;;;;7.18;5.07;;;;;;;21.75;100.00;98244.94;5057027;28;20217;-78
2023/08/12 07:22:43;;;;;;;6.13;5.60;;;;;;;21.78;100.00;98255.16;5057981;28;20202;-78
2023/08/12 07:25:10;;;;;;;5.25;4.63;;;;;;;21.73;100.00;98249.81;5057559;28;20237;-78
2023/08/12 07:27:36;;;;;;;6.05;5.07;;;;;;;21.73;100.00;98257.94;5055882;28;20209;-74
2023/08/12 07:30:03;;;;;;;5.28;4.82;;;;;;;21.77;100.00;98254.38;5053724;28;20229;-74
2023/08/12 07:32:30;;;;;;;5.68;4.75;;;;;;;21.97;100.00;98251.47;5054736;28;20320;-74
2023/08/12 07:34:56;;;;;;;5.70;5.20;;;;;;;22.18;100.00;98252.84;5055783;28;20209;-74
2023/08/12 07:37:22;;;;;;;5.47;4.93;;;;;;;22.39;100.00;98256.91;5056114;28;20205;-74
2023/08/12 07:39:49;;;;;;;5.00;4.60;;;;;;;22.70;100.00;98249.25;5052425;28;20237;-74
2023/08/12 07:42:15;;;;;;;6.03;5.40;;;;;;;22.80;100.00;98249.13;5053829;28;20194;-75
2023/08/12 07:44:41;;;;;;;5.40;4.88;;;;;;;22.97;100.00;98249.41;5055032;28;20212;-74
2023/08/12 07:47:08;;;;;;;7.03;5.10;;;;;;;23.05;100.00;98249.56;5055815;28;20205;-75
2023/08/12 07:49:34;;;;;;;8.30;5.32;;;;;;;22.90;100.00;98252.50;5055315;28;20232;-75
2023/08/12 07:52:01;;;;;;;5.40;4.90;;;;;;;23.07;100.00;98247.34;5054764;28;20247;-75
2023/08/12 07:54:27;;;;;;;5.63;5.15;;;;;;;23.14;100.00;98252.41;5055462;28;20205;-75
2023/08/12 07:56:54;;;;;;;5.07;4.57;;;;;;;23.17;100.00;98252.63;5055470;28;20205;-75
2023/08/12 07:59:21;;;;;;;5.32;4.90;;;;;;;23.25;100.00;98245.75;5055197;28;20711;-75
2023/08/12 08:01:48;;;;;;;5.15;4.65;;;;;;;23.55;100.00;98239.81;5054285;28;20209;-75
2023/08/12 08:04:14;;;;;;;5.80;4.85;;;;;;;23.72;100.00;98243.59;5055541;28;20567;-75
2023/08/12 08:06:40;;;;;;;5.28;4.78;;;;;;;23.79;100.00;98240.50;5055562;28;20205;-75
2023/08/12 08:09:07;;;;;;;5.10;4.50;;;;;;;23.72;100.00;98237.34;5055408;28;20226;-75
2023/08/12 08:11:34;;;;;;;5.72;4.85;;;;;;;23.76;100.00;98239.19;5054538;28;20205;-75
2023/08/12 08:14:00;;;;;;;5.30;4.80;;;;;;;23.73;100.00;98236.22;5054357;28;20312;-75
2023/08/12 08:16:27;;;;;;;5.28;4.78;;;;;;;23.77;100.00;98238.06;5054848;28;20706;-75
2023/08/12 08:18:53;;;;;;;5.57;4.85;;;;;;;23.98;100.00;98233.91;5054896;28;20229;-75
2023/08/12 08:21:20;;;;;;;5.03;4.63;;;;;;;24.37;100.00;98234.19;5054944;28;20212;-75
2023/08/12 08:23:46;;;;;;;6.30;4.60;;;;;;;24.49;100.00;98225.53;5053576;28;20687;-75
2023/08/12 08:26:15;;;;;;;5.93;4.70;;;;;;;24.62;100.00;98235.63;5054553;28;20295;-75
2023/08/12 08:28:41;;;;;;;6.05;4.60;;;;;;;24.64;100.00;98225.22;5055031;28;20287;-75
2023/08/12 08:31:09;;;;;;;6.65;4.65;;;;;;;24.43;100.00;98229.47;5055117;28;20201;-75
2023/08/12 08:33:35;;;;;;;5.25;4.80;;;;;;;24.45;100.00;98233.50;5054326;28;20224;-75
2023/08/12 08:36:01;;;;;;;4.63;4.22;;;;;;;24.63;100.00;98226.34;5054933;28;20209;-75
2023/08/12 08:38:28;;;;;;;6.40;4.75;;;;;;;24.77;100.00;98232.56;5054545;28;20225;-75
2023/08/12 08:40:54;;;;;;;5.43;4.68;;;;;;;24.63;100.00;98229.06;5054796;28;20201;-75
2023/08/12 08:43:27;;;;;;;4.78;4.38;;;;;;;24.74;100.00;98238.63;5054284;28;20203;-75
2023/08/12 08:45:55;;;;;;;5.03;4.63;;;;;;;24.63;100.00;98248.09;5054863;28;20194;-75
2023/08/12 08:48:22;;;;;;;4.75;4.35;;;;;;;24.80;100.00;98240.94;5053825;28;20209;-75
2023/08/12 08:50:51;;;;;;;5.43;4.82;;;;;;;24.91;100.00;98238.75;5054516;28;20209;-75
2023/08/12 08:53:18;;;;;;;5.22;4.55;;;;;;;24.53;100.00;98242.84;5053318;28;20221;-75
2023/08/12 08:55:45;;;;;;;6.47;4.60;;;;;;;24.59;100.00;98247.06;5054779;28;20205;-75
2023/08/12 08:58:12;;;;;;;5.18;4.22;;;;;;;24.89;100.00;98233.66;5054503;28;20211;-75
2023/08/12 09:00:39;;;;;;;5.57;4.97;;;;;;;25.06;100.00;98238.44;5054926;28;20209;-75
2023/08/12 09:03:06;;;;;;;6.20;4.40;;;;;;;25.10;100.00;98234.00;5053633;28;20205;-75
2023/08/12 09:05:34;;;;;;;4.88;4.47;;;;;;;25.27;100.00;98232.22;5054088;28;20201;-75
2023/08/12 09:08:02;;;;;;;5.88;4.72;;;;;;;25.59;100.00;98228.44;5054404;28;20545;-75
2023/08/12 09:10:29;;;;;;;4.28;3.97;;;;;;;25.83;99.64;98228.91;5053984;28;20288;-79
2023/08/12 09:12:56;;;;;;;6.32;4.32;;;;;;;25.74;99.02;98225.34;5055810;28;20221;-79
2023/08/12 09:15:23;;;;;;;5.60;4.68;;;;;;;25.77;100.00;98225.50;5055938;28;20215;-79
2023/08/12 09:17:50;;;;;;;4.95;4.40;;;;;;;26.03;99.74;98231.09;5057066;28;20205;-79
2023/08/12 09:20:16;;;;;;;5.03;4.40;;;;;;;26.00;95.82;98229.00;5055847;28;20248;-79
2023/08/12 09:22:43;;;;;;;4.82;4.40;;;;;;;25.92;98.72;98227.84;5057368;28;20676;-79
2023/08/12 09:25:11;;;;;;;8.23;4.30;;;;;;;26.00;96.16;98229.81;5056953;28;20211;-79
2023/08/12 09:27:38;;;;;;;4.70;4.03;;;;;;;25.99;94.50;98232.84;5055904;28;20660;-79
2023/08/12 09:30:05;;;;;;;7.13;4.45;;;;;;;25.90;94.11;98235.50;5053695;28;20221;-79
2023/08/12 09:32:34;;;;;;;5.00;4.35;;;;;;;25.96;92.03;98231.56;5054640;28;20587;-78
2023/08/12 09:35:02;;;;;;;5.57;4.50;;;;;;;25.85;92.19;98232.09;5055427;28;20205;-78
2023/08/12 09:37:29;;;;;;;6.43;3.83;;;;;;;26.33;91.86;98230.25;5055228;28;20336;-78
2023/08/12 09:39:57;;;;;;;6.68;4.38;;;;;;;26.84;89.30;98222.22;5050604;28;20233;-78
2023/08/12 09:42:24;;;;;;;7.65;4.78;;;;;;;27.25;86.08;98225.28;5052933;28;20216;-78
2023/08/12 09:44:51;;;;;;;5.70;4.35;;;;;;;27.18;88.40;98214.06;5052869;28;20205;-74
2023/08/12 09:47:18;;;;;;;4.55;4.15;;;;;;;27.46;88.57;98215.31;5052081;28;20205;-74
2023/08/12 09:49:44;;;;;;;4.00;3.70;;;;;;;27.85;81.79;98203.38;5050975;28;20225;-74
2023/08/12 09:52:10;;;;;;;6.80;3.88;;;;;;;27.87;83.12;98198.38;5051813;28;20212;-74
2023/08/12 09:54:37;;;;;;;5.82;3.83;;;;;;;27.63;82.91;98185.22;5053638;28;20205;-74
2023/08/12 09:57:06;;;;;;;6.90;3.72;;;;;;;27.66;82.08;98184.56;5053691;28;20614;-74
2023/08/12 09:59:35;;;;;;;5.82;3.80;;;;;;;27.50;82.96;98185.44;5053791;28;20274;-74
2023/08/12 10:02:03;;;;;;;3.92;3.45;;;;;;;27.63;79.22;98185.22;5051782;28;20206;-74
2023/08/12 10:04:37;;;;;;;4.22;3.85;;;;;;;27.32;81.86;98187.41;5053914;28;20200;-74
2023/08/12 10:07:05;;;;;;;4.93;3.90;;;;;;;27.28;82.46;98170.06;5052946;28;20209;-74
2023/08/12 10:09:33;;;;;;;4.43;3.75;;;;;;;26.98;85.78;98174.56;5053210;28;20564;-75
2023/08/12 10:12:00;;;;;;;6.72;4.20;;;;;;;26.38;100.00;98172.88;5052623;28;20211;-73
2023/08/12 10:14:27;;;;;;;5.15;4.47;;;;;;;26.05;100.00;98172.44;5052895;28;20236;-73
2023/08/12 10:16:54;;;;;;;5.38;4.32;;;;;;;25.80;100.00;98175.84;5053011;28;20205;-73
2023/08/12 10:19:22;;;;;;;4.65;4.25;;;;;;;25.77;100.00;98175.66;5051921;28;20728;-73
2023/08/12 10:21:50;;;;;;;5.10;4.57;;;;;;;25.76;100.00;98177.59;5051064;28;20212;-73
2023/08/12 10:24:17;;;;;;;4.53;4.00;;;;;;;25.77;100.00;98181.91;5050142;28;20198;-73
2023/08/12 10:26:44;;;;;;;3.58;3.33;;;;;;;25.99;100.00;98173.72;5052063;28;20255;-74
2023/08/12 10:29:12;;;;;;;4.47;3.25;;;;;;;26.10;100.00;98179.69;5051387;28;20225;-73
2023/08/12 10:31:40;;;;;;;3.92;3.60;;;;;;;26.17;99.84;98183.56;5051869;28;20668;-73
2023/08/12 10:34:06;;;;;;;5.75;3.40;;;;;;;26.25;100.00;98187.41;5052545;28;20231;-73
2023/08/12 10:36:34;;;;;;;3.13;2.90;;;;;;;26.47;100.00;98182.66;5052626;28;20669;-73
2023/08/12 10:39:01;;;;;;;4.50;2.83;;;;;;;26.77;93.46;98184.50;5051520;28;20236;-74
2023/08/12 10:41:27;;;;;;;3.78;3.17;;;;;;;27.04;93.25;98183.38;5052749;28;20205;-74
2023/08/12 10:43:59;;;;;;;3.17;2.88;;;;;;;27.10;89.12;98180.16;5052899;28;20201;-73
2023/08/12 10:46:32;;;;;;;3.42;3.13;;;;;;;27.12;92.10;98179.84;5053895;28;20205;-74
2023/08/12 10:49:05;;;;;;;4.28;3.03;;;;;;;27.14;89.11;98177.59;5054906;28;20654;-74
2023/08/12 10:51:53;;;;;;;2.70;2.50;;;;;;;27.18;84.15;98178.56;5053618;28;20211;-73
2023/08/12 10:54:26;;;;;;;3.28;3.05;;;;;;;27.01;95.41;98178.56;5054297;28;20251;-73
2023/08/12 10:57:11;;;;;;;3.70;2.80;;;;;;;27.34;85.60;98182.41;5053510;28;20570;-74
2023/08/12 10:59:46;;;;;;;4.18;2.83;;;;;;;27.33;86.55;98169.88;5054334;28;20224;-74
2023/08/12 11:02:32;;;;;;;3.28;2.97;;;;;;;27.57;81.03;98170.13;5054139;28;20690;-74
2023/08/12 11:05:03;;;;;;;3.85;2.85;;;;;;;27.51;85.96;98159.72;5056501;28;20185;-74
2023/08/12 11:07:40;;;;;;;3.83;2.80;;;;;;;27.83;84.86;98165.44;5056586;28;20189;-74
2023/08/12 11:10:17;;;;;;;3.15;2.95;;;;;;;28.17;78.32;98170.72;5054559;28;20252;-74
2023/08/12 11:12:53;;;;;;;4.13;2.65;;;;;;;28.11;78.70;98158.38;5055349;28;20201;-74
2023/08/12 11:15:41;;;;;;;3.53;3.00;;;;;;;28.18;77.84;98158.69;5056002;28;20641;-74
2023/08/12 11:18:16;;;;;;;3.53;2.70;;;;;;;28.58;77.66;98162.63;5056585;28;20193;-74
2023/08/12 11:20:43;;;;;;;3.40;3.00;;;;;;;28.85;73.45;98155.84;5056519;28;20185;-74
2023/08/12 11:23:10;;;;;;;4.57;3.00;;;;;;;28.58;76.36;98145.44;5055910;28;20413;-74
2023/08/12 11:25:39;;;;;;;4.10;3.13;;;;;;;28.44;77.05;98144.88;5054920;28;20214;-74
2023/08/12 11:28:06;;;;;;;3.15;2.90;;;;;;;28.20;74.36;98136.44;5056053;28;20219;-74